createdAt,value
2024-03-02T00:00:14.846Z,60.88
2024-03-02T00:02:47.322Z,64.40
2024-03-02T00:05:17.732Z,52.03
2024-03-02T00:07:53.639Z,49.47
2024-03-02T00:10:26.830Z,53.75
2024-03-02T00:12:56.906Z,56.17
2024-03-02T00:15:48.012Z,58.53
2024-03-02T00:18:21.349Z,48.30
2024-03-02T00:23:19.712Z,48.95
2024-03-02T00:25:56.069Z,58.45
2024-03-02T00:28:38.175Z,46.22
2024-03-02T00:31:13.652Z,54.28
2024-03-02T00:33:45.891Z,52.13
2024-03-02T00:36:16.597Z,42.72
2024-03-02T00:38:52.790Z,47.80
2024-03-02T00:41:29.353Z,37.50
2024-03-02T00:44:14.117Z,33.60
2024-03-02T00:46:43.953Z,34.58
2024-03-02T00:49:25.945Z,34.67
2024-03-02T00:51:55.504Z,36.95
2024-03-02T00:54:27.274Z,36.97
2024-03-02T00:56:57.152Z,36.35
2024-03-02T00:59:25.916Z,38.28
2024-03-02T01:01:54.031Z,29.80
2024-03-02T01:04:22.262Z,41.00
2024-03-02T01:06:50.591Z,51.20
2024-03-02T01:09:19.602Z,23.20
2024-03-02T01:11:47.918Z,30.60
2024-03-02T01:14:16.410Z,23.95
2024-03-02T01:16:44.496Z,26.45
2024-03-02T01:19:12.630Z,23.62
2024-03-02T01:21:41.128Z,29.02
2024-03-02T01:24:09.320Z,26.17
2024-03-02T01:26:37.325Z,41.83
2024-03-02T01:29:05.803Z,50.85
2024-03-02T01:31:34.091Z,21.08
2024-03-02T01:34:02.080Z,36.88
2024-03-02T01:36:30.596Z,52.95
2024-03-02T01:38:58.746Z,37.05
2024-03-02T01:41:27.142Z,45.10
2024-03-02T01:43:55.507Z,41.28
2024-03-02T01:46:23.530Z,46.90
2024-03-02T01:48:51.418Z,40.28
2024-03-02T01:51:19.883Z,34.83
2024-03-02T01:53:47.878Z,43.87
2024-03-02T01:56:15.992Z,23.98
2024-03-02T01:58:46.042Z,44.92
2024-03-02T02:01:14.271Z,30.85
2024-03-02T02:03:42.828Z,46.83
2024-03-02T02:06:11.396Z,46.70
2024-03-02T02:08:39.594Z,55.80
2024-03-02T02:11:08.664Z,47.80
2024-03-02T02:13:36.888Z,41.83
2024-03-02T02:16:09.085Z,43.70
2024-03-02T02:18:38.199Z,54.30
2024-03-02T02:21:06.301Z,55.25
2024-03-02T02:23:34.411Z,56.55
2024-03-02T02:26:04.225Z,55.63
2024-03-02T02:28:32.312Z,32.70
2024-03-02T02:31:02.131Z,56.37
2024-03-02T02:33:30.838Z,56.50
2024-03-02T02:35:58.816Z,62.13
2024-03-02T02:38:26.963Z,61.80
2024-03-02T02:40:55.194Z,39.88
2024-03-02T02:43:23.306Z,31.58
2024-03-02T02:45:51.468Z,28.10
2024-03-02T02:48:20.131Z,51.08
2024-03-02T02:50:48.052Z,58.85
2024-03-02T02:53:16.059Z,47.47
2024-03-02T02:55:45.069Z,38.65
2024-03-02T02:58:13.188Z,45.15
2024-03-02T03:00:42.201Z,52.97
2024-03-02T03:03:10.634Z,51.83
2024-03-02T03:05:38.782Z,47.78
2024-03-02T03:08:07.001Z,61.55
2024-03-02T03:10:35.636Z,57.47
2024-03-02T03:13:04.042Z,59.85
2024-03-02T03:15:32.989Z,55.63
2024-03-02T03:18:01.467Z,63.87
2024-03-02T03:20:29.594Z,63.40
2024-03-02T03:22:58.389Z,58.97
2024-03-02T03:25:27.121Z,65.97
2024-03-02T03:27:55.208Z,62.47
2024-03-02T03:30:24.750Z,63.35
2024-03-02T03:32:53.115Z,58.17
2024-03-02T03:35:21.197Z,65.05
2024-03-02T03:37:49.287Z,67.68
2024-03-02T03:40:17.977Z,63.03
2024-03-02T03:42:46.172Z,67.32
2024-03-02T03:45:14.395Z,68.00
2024-03-02T03:47:42.826Z,71.82
2024-03-02T03:50:11.399Z,70.18
2024-03-02T03:52:39.559Z,68.07
2024-03-02T03:55:08.277Z,59.72
2024-03-02T03:57:36.628Z,69.60
2024-03-02T04:00:05.867Z,67.35
2024-03-02T04:02:40.539Z,74.28
2024-03-02T04:05:12.884Z,63.55
2024-03-02T04:07:44.685Z,66.25
2024-03-02T04:10:14.150Z,63.85
2024-03-02T04:12:42.158Z,62.83
2024-03-02T04:15:10.409Z,78.78
2024-03-02T04:17:38.934Z,66.12
2024-03-02T04:20:08.248Z,66.62
2024-03-02T04:22:37.282Z,77.32
2024-03-02T04:25:06.350Z,64.82
2024-03-02T04:27:35.141Z,72.32
2024-03-02T04:30:03.623Z,70.40
2024-03-02T04:32:33.007Z,68.03
2024-03-02T04:35:01.100Z,64.00
2024-03-02T04:37:30.969Z,69.43
2024-03-02T04:39:59.303Z,69.30
2024-03-02T04:42:27.433Z,72.57
2024-03-02T04:44:55.347Z,82.80
2024-03-02T04:47:24.146Z,83.40
2024-03-02T04:49:52.165Z,81.80
2024-03-02T04:52:20.315Z,68.18
2024-03-02T04:55:07.012Z,74.22
2024-03-02T04:57:35.286Z,80.00
2024-03-02T05:00:08.523Z,69.80
2024-03-02T05:05:05.164Z,76.47
2024-03-02T05:07:33.377Z,66.95
2024-03-02T05:10:01.523Z,79.90
2024-03-02T05:12:37.601Z,73.07
2024-03-02T05:15:06.114Z,77.50
2024-03-02T05:17:34.860Z,77.78
2024-03-02T05:20:03.203Z,69.75
2024-03-02T05:22:31.730Z,69.80
2024-03-02T05:25:01.339Z,69.57
2024-03-02T05:27:32.575Z,66.75
2024-03-02T05:30:01.695Z,63.45
2024-03-02T05:32:32.306Z,58.20
2024-03-02T05:35:00.712Z,67.55
2024-03-02T05:37:28.731Z,64.28
2024-03-02T05:39:56.747Z,55.97
2024-03-02T05:42:25.129Z,60.92
2024-03-02T05:44:53.132Z,63.00
2024-03-02T05:47:21.202Z,64.80
2024-03-02T05:49:49.981Z,62.40
2024-03-02T05:52:18.016Z,56.47
2024-03-02T05:54:46.048Z,52.92
2024-03-02T05:57:33.176Z,46.70
2024-03-02T06:00:01.274Z,47.00
2024-03-02T06:02:30.085Z,51.58
2024-03-02T06:04:58.507Z,59.67
2024-03-02T06:07:26.494Z,60.97
2024-03-02T06:09:54.862Z,58.58
2024-03-02T06:12:23.386Z,53.35
2024-03-02T06:14:51.338Z,51.60
2024-03-02T06:17:20.466Z,54.75
2024-03-02T06:19:49.289Z,53.17
2024-03-02T06:22:17.387Z,59.33
2024-03-02T06:24:45.584Z,51.92
2024-03-02T06:27:14.082Z,54.85
2024-03-02T06:29:42.271Z,53.78
2024-03-02T06:32:10.275Z,54.40
2024-03-02T06:34:38.614Z,48.53
2024-03-02T06:37:06.728Z,54.33
2024-03-02T06:39:35.749Z,60.85
2024-03-02T06:42:04.409Z,54.83
2024-03-02T06:44:32.674Z,53.60
2024-03-02T06:47:00.713Z,56.35
2024-03-02T06:49:29.402Z,54.92
2024-03-02T06:51:57.979Z,50.97
2024-03-02T06:54:26.023Z,52.28
2024-03-02T06:56:54.288Z,49.00
2024-03-02T06:59:22.257Z,46.33
2024-03-02T07:01:50.266Z,42.78
2024-03-02T07:04:18.719Z,51.83
2024-03-02T07:06:46.656Z,46.20
2024-03-02T07:09:14.454Z,41.72
2024-03-02T07:11:42.707Z,49.08
2024-03-02T07:14:10.857Z,48.25
2024-03-02T07:16:41.422Z,47.22
2024-03-02T07:19:10.615Z,55.42
2024-03-02T07:21:39.331Z,47.58
2024-03-02T07:24:08.060Z,45.75
2024-03-02T07:29:07.224Z,40.70
2024-03-02T07:31:35.252Z,43.08
2024-03-02T07:34:05.014Z,43.78
2024-03-02T07:36:33.142Z,45.15
2024-03-02T07:39:01.185Z,47.97
2024-03-02T07:41:29.636Z,39.67
2024-03-02T07:43:58.526Z,40.60
2024-03-02T07:46:26.727Z,43.33
2024-03-02T07:48:55.602Z,41.90
2024-03-02T07:51:23.866Z,45.55
2024-03-02T07:53:51.990Z,37.40
2024-03-02T07:56:23.789Z,44.63
2024-03-02T07:58:52.007Z,43.83
2024-03-02T08:01:21.342Z,41.75
2024-03-02T08:03:51.734Z,41.80
2024-03-02T08:06:22.171Z,40.20
2024-03-02T08:08:50.646Z,40.25
2024-03-02T08:11:19.200Z,41.00
2024-03-02T08:13:47.139Z,42.67
2024-03-02T08:16:17.417Z,49.30
2024-03-02T08:18:45.913Z,55.35
2024-03-02T08:21:14.998Z,48.85
2024-03-02T08:23:45.107Z,51.80
2024-03-02T08:26:13.735Z,45.55
2024-03-02T08:28:44.927Z,48.97
2024-03-02T09:24:36.326Z,37.28
2024-03-02T09:27:23.955Z,40.22
2024-03-02T09:29:52.962Z,34.83
2024-03-02T09:32:22.122Z,34.00
2024-03-02T09:34:50.486Z,34.72
2024-03-02T09:37:18.573Z,34.70
2024-03-02T09:39:47.033Z,31.60
2024-03-02T09:42:16.700Z,28.87
2024-03-02T09:44:44.976Z,30.35
2024-03-02T09:47:13.990Z,28.23
2024-03-02T09:49:42.179Z,33.38
2024-03-02T09:52:11.571Z,29.65
2024-03-02T09:54:40.103Z,28.08
2024-03-02T09:57:11.117Z,26.73
2024-03-02T09:59:39.937Z,27.02
2024-03-02T10:02:11.124Z,30.77
2024-03-02T10:04:40.881Z,30.85
2024-03-02T10:07:18.654Z,29.50
2024-03-02T10:09:53.546Z,33.58
2024-03-02T10:12:21.581Z,29.87
2024-03-02T10:14:51.953Z,27.30
2024-03-02T10:17:20.120Z,28.45
2024-03-02T10:19:48.982Z,31.33
2024-03-02T10:22:17.494Z,32.92
2024-03-02T10:24:47.370Z,27.40
2024-03-02T10:27:24.124Z,30.48
2024-03-02T10:29:53.156Z,31.37
2024-03-02T10:32:24.268Z,29.80
2024-03-02T10:34:53.464Z,31.67
2024-03-02T10:37:23.455Z,28.83
2024-03-02T10:39:53.871Z,28.38
2024-03-02T10:42:25.404Z,28.80
2024-03-02T10:44:54.099Z,26.60
2024-03-02T10:47:24.466Z,31.27
2024-03-02T10:49:54.522Z,29.50
2024-03-02T10:52:24.655Z,27.05
2024-03-02T10:54:54.102Z,29.30
2024-03-02T10:57:24.971Z,27.75
2024-03-02T11:00:03.463Z,23.87
2024-03-02T11:02:34.031Z,23.98
2024-03-02T11:05:09.225Z,29.37
2024-03-02T11:07:39.221Z,27.80
2024-03-02T11:10:10.492Z,25.12
2024-03-02T11:12:45.710Z,27.52
2024-03-02T11:15:21.055Z,29.85
2024-03-02T11:17:50.952Z,27.45
2024-03-02T11:20:20.503Z,30.00
2024-03-02T11:22:48.523Z,28.52
2024-03-02T11:25:29.944Z,27.67
2024-03-02T11:27:58.799Z,31.15
2024-03-02T11:30:36.524Z,30.00
2024-03-02T11:33:12.269Z,26.70
2024-03-02T11:35:54.181Z,31.42
2024-03-02T11:38:22.995Z,27.45
2024-03-02T11:40:51.169Z,27.40
2024-03-02T11:43:22.850Z,34.92
2024-03-02T11:45:59.916Z,31.70
2024-03-02T11:48:28.390Z,27.98
2024-03-02T11:51:01.112Z,32.65
2024-03-02T11:53:32.352Z,32.38
2024-03-02T11:56:03.736Z,31.70
2024-03-02T11:58:31.976Z,27.62
2024-03-02T12:01:00.314Z,30.23
2024-03-02T12:03:30.671Z,23.62
2024-03-02T12:09:18.543Z,28.42
2024-03-02T12:11:47.296Z,24.87
2024-03-02T12:14:15.286Z,34.83
2024-03-02T12:16:46.646Z,32.50
2024-03-02T12:19:18.865Z,33.30
2024-03-02T12:21:48.415Z,34.10
2024-03-02T12:24:18.035Z,35.15
2024-03-02T12:26:48.057Z,28.73
2024-03-02T12:29:28.518Z,27.92
2024-03-02T12:31:56.483Z,35.20
2024-03-02T12:34:26.150Z,28.70
2024-03-02T12:36:54.772Z,29.27
2024-03-02T12:39:24.665Z,23.92
2024-03-02T12:41:55.620Z,25.20
2024-03-02T12:44:23.558Z,24.40
2024-03-02T12:46:55.021Z,20.65
2024-03-02T12:49:24.473Z,27.33
2024-03-02T12:51:55.284Z,26.33
2024-03-02T12:54:24.324Z,21.87
2024-03-02T12:56:52.721Z,23.20
2024-03-02T12:59:23.580Z,32.60
2024-03-02T13:01:54.759Z,33.28
2024-03-02T13:04:27.933Z,29.67
2024-03-02T13:06:59.361Z,29.50
2024-03-02T13:09:29.386Z,30.37
2024-03-02T13:11:58.414Z,36.40
2024-03-02T13:14:27.592Z,28.58
2024-03-02T13:16:59.654Z,38.92
2024-03-02T13:19:30.331Z,37.15
2024-03-02T13:21:59.930Z,44.10
2024-03-02T13:24:29.816Z,39.80
2024-03-02T13:26:59.623Z,35.85
2024-03-02T13:29:27.497Z,37.03
2024-03-02T13:31:55.447Z,42.03
2024-03-02T13:34:25.741Z,45.42
2024-03-02T13:36:53.838Z,45.63
2024-03-02T13:39:21.641Z,44.38
2024-03-02T13:41:54.354Z,46.53
2024-03-02T13:44:23.209Z,44.30
2024-03-02T13:46:53.978Z,39.30
2024-03-02T13:49:21.858Z,42.00
2024-03-02T13:51:49.855Z,37.75
2024-03-02T13:54:19.046Z,32.75
2024-03-02T13:56:48.349Z,33.28
2024-03-02T13:59:16.165Z,35.15
2024-03-02T14:01:45.091Z,26.95
2024-03-02T14:04:14.256Z,24.48
2024-03-02T14:06:44.859Z,25.58
2024-03-02T14:09:13.095Z,25.88
2024-03-02T14:11:41.118Z,21.08
2024-03-02T14:14:09.062Z,30.90
2024-03-02T14:16:37.496Z,31.42
2024-03-02T14:19:08.703Z,25.83
2024-03-02T14:21:40.535Z,25.55
2024-03-02T14:24:08.813Z,26.27
2024-03-02T14:26:40.413Z,25.20
2024-03-02T14:29:08.312Z,27.92
2024-03-02T14:31:36.347Z,26.83
2024-03-02T14:34:04.961Z,24.75
2024-03-02T14:36:33.038Z,23.00
2024-03-02T14:39:01.078Z,29.12
2024-03-02T14:41:29.528Z,31.40
2024-03-02T14:43:57.403Z,37.75
2024-03-02T14:46:26.625Z,24.00
2024-03-02T14:48:55.499Z,23.52
2024-03-02T14:51:23.494Z,24.65
2024-03-02T14:53:52.630Z,26.25
2024-03-02T14:56:20.875Z,24.85
2024-03-02T14:58:48.933Z,21.85
2024-03-02T15:01:19.712Z,23.73
2024-03-02T15:03:48.057Z,25.40
2024-03-02T15:06:16.013Z,29.37
2024-03-02T15:09:03.618Z,25.42
2024-03-02T15:11:31.984Z,19.12
2024-03-02T15:13:59.936Z,22.55
2024-03-02T15:16:30.135Z,29.48
2024-03-02T15:18:58.909Z,25.67
2024-03-02T15:21:26.854Z,21.87
2024-03-02T15:23:54.980Z,23.02
2024-03-02T15:26:23.267Z,23.80
2024-03-02T15:28:51.371Z,21.60
2024-03-02T15:31:19.529Z,25.90
2024-03-02T15:33:47.807Z,22.83
2024-03-02T15:36:16.934Z,23.02
2024-03-02T15:38:45.259Z,18.62
2024-03-02T15:41:13.523Z,23.92
2024-03-02T15:43:43.773Z,16.65
2024-03-02T15:46:11.916Z,24.98
2024-03-02T15:48:40.300Z,23.55
2024-03-02T15:51:09.414Z,28.05
2024-03-02T15:53:38.070Z,20.58
2024-03-02T15:56:09.461Z,29.63
2024-03-02T15:58:39.780Z,24.33
2024-03-02T16:01:10.904Z,31.65
2024-03-02T16:03:39.314Z,34.08
2024-03-02T16:06:07.358Z,30.37
2024-03-02T16:08:36.183Z,35.22
2024-03-02T16:11:05.216Z,33.35
2024-03-02T16:13:33.717Z,36.28
2024-03-02T16:16:01.876Z,28.95
2024-03-02T16:18:31.722Z,32.72
2024-03-02T16:21:00.211Z,30.27
2024-03-02T16:23:28.860Z,35.80
2024-03-02T16:25:57.211Z,36.22
2024-03-02T16:28:25.148Z,38.97
2024-03-02T16:30:54.766Z,36.15
2024-03-02T16:33:25.548Z,37.95
2024-03-02T16:35:55.126Z,38.13
2024-03-02T16:38:22.999Z,43.38
2024-03-02T16:40:51.372Z,36.28
2024-03-02T16:43:22.320Z,34.72
2024-03-02T16:45:52.147Z,35.50
2024-03-02T16:48:38.247Z,28.15
2024-03-02T16:51:06.761Z,28.00
2024-03-02T16:53:35.945Z,31.20
2024-03-02T16:56:05.010Z,21.92
2024-03-02T16:58:33.385Z,33.25
2024-03-02T17:01:01.376Z,31.20
2024-03-02T17:03:29.417Z,38.20
2024-03-02T17:05:57.777Z,33.55
2024-03-02T17:08:27.024Z,26.00
2024-03-02T17:10:54.953Z,30.88
2024-03-02T17:13:23.340Z,32.22
2024-03-02T17:15:51.313Z,30.17
2024-03-02T17:18:39.005Z,31.87
2024-03-02T17:21:07.678Z,32.00
2024-03-02T17:23:35.550Z,33.35
2024-03-02T17:26:03.660Z,41.85
2024-03-02T17:28:34.176Z,37.33
2024-03-02T17:31:03.018Z,41.90
2024-03-02T17:33:31.670Z,34.55
2024-03-02T17:36:01.453Z,35.45
2024-03-02T17:38:30.635Z,46.20
2024-03-02T17:40:58.886Z,48.42
2024-03-02T17:43:28.333Z,48.97
2024-03-02T17:45:58.139Z,42.97
2024-03-02T17:48:27.305Z,38.00
2024-03-02T17:50:55.204Z,39.15
2024-03-02T17:53:23.225Z,55.22
2024-03-02T17:55:51.910Z,58.58
2024-03-02T17:58:21.020Z,53.92
2024-03-02T18:00:49.068Z,47.85
2024-03-02T18:03:17.440Z,56.78
2024-03-02T18:05:45.296Z,53.72
2024-03-02T18:08:15.836Z,41.58
2024-03-02T18:10:44.153Z,38.88
2024-03-02T18:13:12.210Z,54.13
2024-03-02T18:15:58.646Z,48.17
2024-03-02T18:18:27.302Z,44.00
2024-03-02T18:20:55.259Z,34.75
2024-03-02T18:23:23.297Z,45.63
2024-03-02T18:25:51.960Z,32.28
2024-03-02T18:28:20.298Z,38.92
2024-03-02T18:30:48.766Z,25.48
2024-03-02T18:33:17.418Z,45.88
2024-03-02T18:35:45.499Z,36.33
2024-03-02T18:38:13.850Z,39.17
2024-03-02T18:40:43.005Z,35.85
2024-03-02T18:43:10.956Z,30.42
2024-03-02T18:45:39.449Z,30.15
2024-03-02T18:48:09.390Z,27.48
2024-03-02T18:50:37.374Z,21.77
2024-03-02T18:53:09.708Z,21.67
2024-03-02T18:55:39.842Z,21.70
2024-03-02T18:58:08.347Z,20.45
2024-03-02T19:00:36.385Z,37.55
2024-03-02T19:03:07.016Z,28.65
2024-03-02T19:05:35.563Z,33.63
2024-03-02T19:08:04.171Z,24.20
2024-03-02T19:10:32.515Z,22.37
2024-03-02T19:13:00.582Z,21.50
2024-03-02T19:15:29.162Z,26.55
2024-03-02T19:17:57.445Z,21.55
2024-03-02T19:20:25.401Z,24.85
2024-03-02T19:22:54.395Z,23.77
2024-03-02T19:25:23.543Z,23.08
2024-03-02T19:27:51.551Z,23.67
2024-03-02T19:30:20.085Z,20.17
2024-03-02T19:32:48.432Z,24.12
2024-03-02T19:35:17.566Z,21.08
2024-03-02T19:37:45.508Z,20.55
2024-03-02T19:40:16.410Z,18.45
2024-03-02T19:42:47.404Z,19.58
2024-03-02T19:45:15.796Z,19.98
2024-03-02T19:47:44.958Z,22.95
2024-03-02T19:50:15.550Z,20.73
2024-03-02T19:52:43.834Z,22.35
2024-03-02T19:55:14.216Z,18.60
2024-03-02T19:57:46.146Z,22.52
2024-03-02T20:00:15.420Z,16.33
2024-03-02T20:02:44.020Z,17.58
2024-03-02T20:05:13.421Z,16.65
2024-03-02T20:07:44.424Z,17.15
2024-03-02T20:10:13.303Z,17.17
2024-03-02T20:12:41.234Z,16.15
2024-03-02T20:15:12.367Z,18.95
2024-03-02T20:17:40.996Z,17.55
2024-03-02T20:20:12.053Z,20.45
2024-03-02T20:22:42.983Z,21.20
2024-03-02T20:25:14.783Z,14.93
2024-03-02T20:27:45.082Z,15.80
2024-03-02T20:30:14.100Z,15.23
2024-03-02T20:32:42.197Z,15.07
2024-03-02T20:35:13.847Z,17.90
2024-03-02T20:37:42.278Z,16.33
2024-03-02T20:40:11.538Z,17.55
2024-03-02T20:42:45.552Z,17.75
2024-03-02T20:45:19.850Z,14.65
2024-03-02T20:47:48.521Z,19.17
2024-03-02T20:50:16.941Z,16.05
2024-03-02T20:52:46.706Z,15.45
2024-03-02T20:55:15.194Z,14.95
2024-03-02T21:01:50.797Z,14.73
2024-03-02T21:04:19.033Z,15.55
2024-03-02T21:06:47.052Z,11.73
2024-03-02T21:09:14.872Z,16.02
2024-03-02T21:11:45.886Z,12.93
2024-03-02T21:14:14.125Z,16.20
2024-03-02T21:16:42.035Z,10.90
2024-03-02T21:19:10.636Z,13.18
2024-03-02T21:21:41.143Z,13.43
2024-03-02T21:24:09.136Z,13.75
2024-03-02T21:26:43.053Z,16.60
2024-03-02T21:29:12.469Z,13.30
2024-03-02T21:31:40.967Z,9.70
2024-03-02T21:34:08.775Z,13.93
2024-03-02T21:36:38.169Z,13.20
2024-03-02T21:39:06.494Z,12.15
2024-03-02T21:41:34.144Z,12.85
2024-03-02T21:44:02.160Z,16.33
2024-03-02T21:46:30.497Z,12.37
2024-03-02T21:48:58.236Z,12.48
2024-03-02T21:51:26.132Z,20.10
2024-03-02T21:53:54.950Z,12.95
2024-03-02T21:56:23.593Z,10.95
2024-03-02T21:58:54.716Z,15.88
2024-03-02T22:01:22.853Z,11.05
2024-03-02T22:03:51.033Z,13.43
2024-03-02T22:06:18.842Z,10.65
2024-03-02T22:08:46.559Z,11.48
2024-03-02T22:11:14.955Z,12.40
2024-03-02T22:13:43.133Z,9.20
2024-03-02T22:16:11.857Z,8.52
2024-03-02T22:18:40.151Z,12.85
2024-03-02T22:21:08.725Z,11.25
2024-03-02T22:23:40.006Z,8.88
2024-03-02T22:26:08.242Z,11.30
2024-03-02T22:28:36.806Z,10.55
2024-03-02T22:31:04.841Z,11.25
2024-03-02T22:33:33.493Z,9.27
2024-03-02T22:36:02.230Z,9.02
2024-03-02T22:38:30.770Z,12.25
2024-03-02T22:40:59.368Z,9.18
2024-03-02T22:43:36.145Z,9.18
2024-03-02T22:46:04.313Z,9.40
2024-03-02T22:48:32.474Z,16.70
2024-03-02T22:51:03.350Z,9.23
2024-03-02T22:53:31.381Z,9.05
2024-03-02T22:56:00.184Z,10.82
2024-03-02T22:58:28.301Z,8.35
2024-03-02T23:00:59.329Z,12.32
2024-03-02T23:03:27.170Z,10.23
2024-03-02T23:05:55.733Z,9.55
2024-03-02T23:08:23.782Z,8.70
2024-03-02T23:10:51.566Z,14.70
2024-03-02T23:13:19.649Z,10.32
2024-03-02T23:15:47.914Z,10.52
2024-03-02T23:18:15.607Z,10.52
2024-03-02T23:20:43.495Z,7.62
2024-03-02T23:23:11.794Z,9.63
2024-03-02T23:25:39.516Z,9.48
2024-03-02T23:28:08.169Z,7.82
2024-03-02T23:30:36.786Z,7.85
2024-03-02T23:33:04.997Z,6.00
2024-03-02T23:35:32.730Z,5.95
2024-03-02T23:38:00.982Z,5.70
2024-03-02T23:40:51.937Z,11.32
2024-03-02T23:43:20.040Z,6.82
2024-03-02T23:45:48.401Z,9.15
2024-03-02T23:48:16.393Z,6.25
2024-03-02T23:50:44.656Z,7.60
2024-03-02T23:53:12.407Z,13.20
2024-03-02T23:55:47.515Z,7.18
2024-03-02T23:58:20.944Z,9.07
